sensor_id;sensor_type;location;lat;lon;timestamp;pressure;altitude;pressure_sealevel;temperature;humidity
24762;BME280;12865;51.934;10.330;2024-03-23T00:54:35;98403.19;;;7.81;100.00
24762;BME280;12865;51.934;10.330;2024-03-23T00:59:49;98393.84;;;7.77;100.00
24762;BME280;12865;51.934;10.330;2024-03-23T01:02:35;98402.66;;;7.78;100.00
24762;BME280;12865;51.934;10.330;2024-03-23T01:05:21;98396.50;;;7.68;100.00
24762;BME280;12865;51.934;10.330;2024-03-23T01:08:07;98399.69;;;7.71;100.00
24762;BME280;12865;51.934;10.330;2024-03-23T01:10:56;98386.75;;;7.68;100.00
24762;BME280;12865;51.934;10.330;2024-03-23T01:13:42;98386.34;;;7.63;100.00
24762;BME280;12865;51.934;10.330;2024-03-23T01:16:28;98387.31;;;7.62;100.00
24762;BME280;12865;51.934;10.330;2024-03-23T01:19:13;98381.03;;;7.63;100.00
24762;BME280;12865;51.934;10.330;2024-03-23T01:21:59;98372.25;;;7.63;100.00
24762;BME280;12865;51.934;10.330;2024-03-23T01:24:45;98353.81;;;7.61;100.00
24762;BME280;12865;51.934;10.330;2024-03-23T01:27:30;98348.78;;;7.58;100.00
24762;BME280;12865;51.934;10.330;2024-03-23T01:30:16;98348.78;;;7.58;100.00
24762;BME280;12865;51.934;10.330;2024-03-23T01:33:02;98358.13;;;7.53;100.00
24762;BME280;12865;51.934;10.330;2024-03-23T01:35:51;98347.53;;;7.53;100.00
24762;BME280;12865;51.934;10.330;2024-03-23T01:38:36;98339.56;;;7.53;100.00
24762;BME280;12865;51.934;10.330;2024-03-23T01:41:24;98333.56;;;7.60;100.00
24762;BME280;12865;51.934;10.330;2024-03-23T01:44:12;98334.72;;;7.48;100.00
24762;BME280;12865;51.934;10.330;2024-03-23T01:46:58;98344.47;;;7.38;100.00
24762;BME280;12865;51.934;10.330;2024-03-23T01:49:44;98340.72;;;7.40;100.00
24762;BME280;12865;51.934;10.330;2024-03-23T01:52:29;98335.97;;;7.15;100.00
24762;BME280;12865;51.934;10.330;2024-03-23T01:55:16;98326.38;;;7.14;100.00
24762;BME280;12865;51.934;10.330;2024-03-23T01:58:02;98330.00;;;7.03;100.00
24762;BME280;12865;51.934;10.330;2024-03-23T02:00:47;98317.03;;;6.91;100.00
24762;BME280;12865;51.934;10.330;2024-03-23T02:03:33;98315.22;;;6.91;100.00
24762;BME280;12865;51.934;10.330;2024-03-23T02:06:19;98322.03;;;7.03;100.00
24762;BME280;12865;51.934;10.330;2024-03-23T02:09:04;98322.03;;;6.94;100.00
24762;BME280;12865;51.934;10.330;2024-03-23T02:11:51;98320.38;;;6.93;100.00
24762;BME280;12865;51.934;10.330;2024-03-23T02:14:36;98317.03;;;6.91;100.00
24762;BME280;12865;51.934;10.330;2024-03-23T02:17:22;98306.56;;;6.80;100.00
24762;BME280;12865;51.934;10.330;2024-03-23T02:20:08;98300.53;;;6.68;100.00
24762;BME280;12865;51.934;10.330;2024-03-23T02:22:54;98299.16;;;6.83;100.00
24762;BME280;12865;51.934;10.330;2024-03-23T02:25:40;98287.59;;;6.75;100.00
24762;BME280;12865;51.934;10.330;2024-03-23T02:28:26;98282.56;;;6.81;100.00
24762;BME280;12865;51.934;10.330;2024-03-23T02:31:12;98287.88;;;6.91;100.00
24762;BME280;12865;51.934;10.330;2024-03-23T02:33:58;98283.13;;;6.85;100.00
24762;BME280;12865;51.934;10.330;2024-03-23T02:36:43;98279.78;;;6.83;100.00
24762;BME280;12865;51.934;10.330;2024-03-23T02:39:29;98274.91;;;6.78;100.00
24762;BME280;12865;51.934;10.330;2024-03-23T02:42:15;98278.25;;;6.80;100.00
24762;BME280;12865;51.934;10.330;2024-03-23T02:45:03;98282.56;;;6.81;100.00
24762;BME280;12865;51.934;10.330;2024-03-23T02:47:50;98275.19;;;6.75;100.00
24762;BME280;12865;51.934;10.330;2024-03-23T02:50:38;98283.00;;;6.77;100.00
24762;BME280;12865;51.934;10.330;2024-03-23T02:53:24;98268.38;;;6.73;100.00
24762;BME280;12865;51.934;10.330;2024-03-23T02:56:09;98262.50;;;6.69;100.00
24762;BME280;12865;51.934;10.330;2024-03-23T02:59:01;98254.81;;;6.66;100.00
24762;BME280;12865;51.934;10.330;2024-03-23T03:01:46;98253.84;;;6.67;100.00
24762;BME280;12865;51.934;10.330;2024-03-23T03:04:32;98257.63;;;6.64;100.00
24762;BME280;12865;51.934;10.330;2024-03-23T03:07:18;98249.97;;;6.71;100.00
24762;BME280;12865;51.934;10.330;2024-03-23T03:10:04;98248.69;;;6.75;100.00
24762;BME280;12865;51.934;10.330;2024-03-23T03:12:51;98246.03;;;6.75;100.00
24762;BME280;12865;51.934;10.330;2024-03-23T03:15:37;98243.13;;;6.78;100.00
24762;BME280;12865;51.934;10.330;2024-03-23T03:18:23;98235.31;;;6.77;100.00
24762;BME280;12865;51.934;10.330;2024-03-23T03:21:08;98239.78;;;6.76;100.00
24762;BME280;12865;51.934;10.330;2024-03-23T03:23:56;98234.47;;;6.76;100.00
24762;BME280;12865;51.934;10.330;2024-03-23T03:26:42;98233.66;;;6.76;100.00
24762;BME280;12865;51.934;10.330;2024-03-23T03:29:28;98238.66;;;6.69;100.00
24762;BME280;12865;51.934;10.330;2024-03-23T03:32:20;98240.47;;;6.78;100.00
24762;BME280;12865;51.934;10.330;2024-03-23T03:35:06;98234.06;;;6.81;100.00
24762;BME280;12865;51.934;10.330;2024-03-23T03:37:51;98225.41;;;6.69;100.00
24762;BME280;12865;51.934;10.330;2024-03-23T03:40:37;98207.44;;;6.82;100.00
24762;BME280;12865;51.934;10.330;2024-03-23T03:43:23;98201.84;;;6.85;100.00
24762;BME280;12865;51.934;10.330;2024-03-23T03:46:09;98208.13;;;6.84;100.00
24762;BME280;12865;51.934;10.330;2024-03-23T03:48:56;98198.50;;;6.83;100.00
24762;BME280;12865;51.934;10.330;2024-03-23T03:51:41;98189.03;;;6.81;100.00
24762;BME280;12865;51.934;10.330;2024-03-23T03:54:27;98190.03;;;6.80;100.00
24762;BME280;12865;51.934;10.330;2024-03-23T03:57:13;98189.72;;;6.73;100.00
24762;BME280;12865;51.934;10.330;2024-03-23T03:59:59;98196.84;;;6.73;100.00
24762;BME280;12865;51.934;10.330;2024-03-23T04:02:44;98191.97;;;6.78;100.00
24762;BME280;12865;51.934;10.330;2024-03-23T04:05:30;98192.66;;;6.70;100.00
24762;BME280;12865;51.934;10.330;2024-03-23T04:08:16;98186.97;;;6.65;100.00
24762;BME280;12865;51.934;10.330;2024-03-23T04:11:02;98184.72;;;6.70;100.00
24762;BME280;12865;51.934;10.330;2024-03-23T04:13:47;98182.91;;;6.70;100.00
24762;BME280;12865;51.934;10.330;2024-03-23T04:16:34;98183.47;;;6.64;100.00
24762;BME280;12865;51.934;10.330;2024-03-23T04:19:20;98181.38;;;6.68;100.00
24762;BME280;12865;51.934;10.330;2024-03-23T04:22:06;98187.94;;;6.64;100.00
24762;BME280;12865;51.934;10.330;2024-03-23T04:24:56;98187.22;;;6.62;100.00
24762;BME280;12865;51.934;10.330;2024-03-23T04:27:42;98193.81;;;6.58;100.00
24762;BME280;12865;51.934;10.330;2024-03-23T04:30:28;98192.53;;;6.52;100.00
24762;BME280;12865;51.934;10.330;2024-03-23T04:33:14;98195.91;;;6.45;100.00
24762;BME280;12865;51.934;10.330;2024-03-23T04:36:00;98183.91;;;6.50;100.00
24762;BME280;12865;51.934;10.330;2024-03-23T04:38:46;98183.34;;;6.47;100.00
24762;BME280;12865;51.934;10.330;2024-03-23T04:41:35;98180.69;;;6.37;100.00
24762;BME280;12865;51.934;10.330;2024-03-23T04:44:21;98181.41;;;6.29;100.00
24762;BME280;12865;51.934;10.330;2024-03-23T04:47:07;98181.53;;;6.38;100.00
24762;BME280;12865;51.934;10.330;2024-03-23T04:49:52;98172.47;;;6.30;100.00
24762;BME280;12865;51.934;10.330;2024-03-23T04:52:38;98159.66;;;6.16;100.00
24762;BME280;12865;51.934;10.330;2024-03-23T04:55:24;98166.19;;;6.03;100.00
24762;BME280;12865;51.934;10.330;2024-03-23T04:58:09;98165.22;;;6.13;100.00
24762;BME280;12865;51.934;10.330;2024-03-23T05:00:56;98154.75;;;6.12;100.00
24762;BME280;12865;51.934;10.330;2024-03-23T05:03:42;98153.38;;;6.17;100.00
24762;BME280;12865;51.934;10.330;2024-03-23T05:06:27;98164.94;;;6.16;100.00
24762;BME280;12865;51.934;10.330;2024-03-23T05:09:13;98154.22;;;6.18;100.00
24762;BME280;12865;51.934;10.330;2024-03-23T05:11:59;98156.00;;;6.17;100.00
24762;BME280;12865;51.934;10.330;2024-03-23T05:14:48;98149.19;;;6.05;100.00
24762;BME280;12865;51.934;10.330;2024-03-23T05:17:35;98139.31;;;6.07;100.00
24762;BME280;12865;51.934;10.330;2024-03-23T05:20:21;98140.16;;;6.08;100.00
24762;BME280;12865;51.934;10.330;2024-03-23T05:23:07;98143.75;;;6.07;100.00
24762;BME280;12865;51.934;10.330;2024-03-23T05:25:52;98148.78;;;6.00;100.00
24762;BME280;12865;51.934;10.330;2024-03-23T05:28:38;98151.84;;;5.96;100.00
24762;BME280;12865;51.934;10.330;2024-03-23T05:31:28;98145.97;;;5.92;100.00
24762;BME280;12865;51.934;10.330;2024-03-23T05:34:14;98147.31;;;5.77;100.00
24762;BME280;12865;51.934;10.330;2024-03-23T05:36:59;98146.81;;;5.93;100.00
24762;BME280;12865;51.934;10.330;2024-03-23T05:39:45;98143.47;;;5.90;100.00
24762;BME280;12865;51.934;10.330;2024-03-23T05:42:31;98138.81;;;5.83;100.00
24762;BME280;12865;51.934;10.330;2024-03-23T05:45:17;98142.97;;;5.76;100.00
24762;BME280;12865;51.934;10.330;2024-03-23T05:48:04;98134.78;;;5.79;100.00
24762;BME280;12865;51.934;10.330;2024-03-23T05:50:50;98133.00;;;5.89;100.00
24762;BME280;12865;51.934;10.330;2024-03-23T05:53:36;98133.00;;;5.89;100.00
24762;BME280;12865;51.934;10.330;2024-03-23T05:56:21;98133.69;;;5.81;100.00
24762;BME280;12865;51.934;10.330;2024-03-23T05:59:07;98142.88;;;5.87;100.00
24762;BME280;12865;51.934;10.330;2024-03-23T06:01:53;98145.44;;;5.88;100.00
24762;BME280;12865;51.934;10.330;2024-03-23T06:04:38;98148.97;;;5.78;100.00
24762;BME280;12865;51.934;10.330;2024-03-23T06:07:24;98144.69;;;5.86;100.00
24762;BME280;12865;51.934;10.330;2024-03-23T06:10:10;98148.88;;;5.89;100.00
24762;BME280;12865;51.934;10.330;2024-03-23T06:12:55;98148.00;;;5.79;100.00
24762;BME280;12865;51.934;10.330;2024-03-23T06:15:41;98154.41;;;5.86;100.00
24762;BME280;12865;51.934;10.330;2024-03-23T06:18:27;98156.66;;;5.81;100.00
24762;BME280;12865;51.934;10.330;2024-03-23T06:21:14;98160.09;;;5.72;100.00
24762;BME280;12865;51.934;10.330;2024-03-23T06:23:59;98147.84;;;5.71;100.00
24762;BME280;12865;51.934;10.330;2024-03-23T06:26:45;98149.53;;;5.72;100.00
24762;BME280;12865;51.934;10.330;2024-03-23T06:29:31;98149.84;;;5.38;100.00
24762;BME280;12865;51.934;10.330;2024-03-23T06:32:17;98140.41;;;5.45;100.00
24762;BME280;12865;51.934;10.330;2024-03-23T06:35:03;98146.69;;;5.54;100.00
24762;BME280;12865;51.934;10.330;2024-03-23T06:37:53;98144.97;;;5.43;100.00
24762;BME280;12865;51.934;10.330;2024-03-23T06:40:39;98146.91;;;5.41;100.00
24762;BME280;12865;51.934;10.330;2024-03-23T06:43:24;98147.69;;;5.63;100.00
24762;BME280;12865;51.934;10.330;2024-03-23T06:46:10;98153.81;;;5.63;100.00
24762;BME280;12865;51.934;10.330;2024-03-23T06:48:56;98157.13;;;5.56;100.00
24762;BME280;12865;51.934;10.330;2024-03-23T06:51:41;98156.94;;;5.47;100.00
24762;BME280;12865;51.934;10.330;2024-03-23T06:54:27;98161.84;;;5.52;100.00
24762;BME280;12865;51.934;10.330;2024-03-23T06:57:13;98169.97;;;5.60;100.00
24762;BME280;12865;51.934;10.330;2024-03-23T06:59:59;98169.78;;;5.62;100.00
24762;BME280;12865;51.934;10.330;2024-03-23T07:02:44;98163.22;;;5.46;100.00
24762;BME280;12865;51.934;10.330;2024-03-23T07:05:30;98176.16;;;5.49;100.00
24762;BME280;12865;51.934;10.330;2024-03-23T07:08:16;98175.06;;;5.52;100.00
24762;BME280;12865;51.934;10.330;2024-03-23T07:11:06;98154.47;;;5.56;100.00
24762;BME280;12865;51.934;10.330;2024-03-23T07:13:53;98169.66;;;5.63;100.00
24762;BME280;12865;51.934;10.330;2024-03-23T07:16:42;98171.41;;;5.43;100.00
24762;BME280;12865;51.934;10.330;2024-03-23T07:19:27;98182.53;;;5.47;100.00
24762;BME280;12865;51.934;10.330;2024-03-23T07:22:14;98190.63;;;5.45;100.00
24762;BME280;12865;51.934;10.330;2024-03-23T07:25:00;98189.47;;;5.38;100.00
24762;BME280;12865;51.934;10.330;2024-03-23T07:27:46;98193.94;;;5.38;100.00
24762;BME280;12865;51.934;10.330;2024-03-23T07:30:32;98193.16;;;5.26;100.00
24762;BME280;12865;51.934;10.330;2024-03-23T07:33:17;98187.53;;;5.10;100.00
24762;BME280;12865;51.934;10.330;2024-03-23T07:36:04;98178.75;;;5.30;100.00
24762;BME280;12865;51.934;10.330;2024-03-23T07:38:50;98171.72;;;5.20;100.00
24762;BME280;12865;51.934;10.330;2024-03-23T07:41:36;98173.41;;;5.21;100.00
24762;BME280;12865;51.934;10.330;2024-03-23T07:44:21;98183.47;;;5.06;100.00
24762;BME280;12865;51.934;10.330;2024-03-23T07:47:07;98189.41;;;4.98;100.00
24762;BME280;12865;51.934;10.330;2024-03-23T07:49:53;98196.47;;;4.98;100.00
24762;BME280;12865;51.934;10.330;2024-03-23T07:52:38;98209.25;;;4.93;100.00
24762;BME280;12865;51.934;10.330;2024-03-23T07:55:24;98209.97;;;4.74;100.00
24762;BME280;12865;51.934;10.330;2024-03-23T07:58:10;98214.09;;;4.88;100.00
24762;BME280;12865;51.934;10.330;2024-03-23T08:00:56;98194.56;;;4.79;100.00
24762;BME280;12865;51.934;10.330;2024-03-23T08:03:49;98199.66;;;4.71;100.00
24762;BME280;12865;51.934;10.330;2024-03-23T08:06:35;98201.66;;;4.79;100.00
24762;BME280;12865;51.934;10.330;2024-03-23T08:09:20;98194.13;;;4.95;100.00
24762;BME280;12865;51.934;10.330;2024-03-23T08:12:06;98203.25;;;4.91;100.00
24762;BME280;12865;51.934;10.330;2024-03-23T08:14:52;98196.22;;;5.01;100.00
24762;BME280;12865;51.934;10.330;2024-03-23T08:17:38;98189.03;;;5.03;100.00
24762;BME280;12865;51.934;10.330;2024-03-23T08:20:23;98185.44;;;5.04;100.00
24762;BME280;12865;51.934;10.330;2024-03-23T08:23:09;98184.91;;;5.10;100.00
24762;BME280;12865;51.934;10.330;2024-03-23T08:25:59;98175.09;;;5.01;100.00
24762;BME280;12865;51.934;10.330;2024-03-23T08:28:44;98188.09;;;5.13;100.00
24762;BME280;12865;51.934;10.330;2024-03-23T08:31:30;98194.16;;;5.25;100.00
24762;BME280;12865;51.934;10.330;2024-03-23T08:34:16;98195.66;;;5.18;100.00
24762;BME280;12865;51.934;10.330;2024-03-23T08:37:01;98204.34;;;5.09;100.00
24762;BME280;12865;51.934;10.330;2024-03-23T08:39:47;98211.56;;;5.07;100.00
24762;BME280;12865;51.934;10.330;2024-03-23T08:42:33;98216.41;;;5.02;100.00
24762;BME280;12865;51.934;10.330;2024-03-23T08:45:18;98216.72;;;5.08;100.00
24762;BME280;12865;51.934;10.330;2024-03-23T08:48:04;98220.72;;;5.03;100.00
24762;BME280;12865;51.934;10.330;2024-03-23T08:51:07;98208.22;;;5.35;100.00
24762;BME280;12865;51.934;10.330;2024-03-23T08:53:53;98206.19;;;5.48;100.00
24762;BME280;12865;51.934;10.330;2024-03-23T08:56:38;98203.19;;;5.53;100.00
24762;BME280;12865;51.934;10.330;2024-03-23T08:59:24;98213.69;;;5.43;100.00
24762;BME280;12865;51.934;10.330;2024-03-23T09:02:09;98221.97;;;5.29;100.00
24762;BME280;12865;51.934;10.330;2024-03-23T09:04:55;98238.88;;;5.17;100.00
24762;BME280;12865;51.934;10.330;2024-03-23T09:07:41;98236.94;;;5.19;100.00
24762;BME280;12865;51.934;10.330;2024-03-23T09:10:27;98238.94;;;4.85;100.00
24762;BME280;12865;51.934;10.330;2024-03-23T09:13:13;98251.56;;;4.82;100.00
24762;BME280;12865;51.934;10.330;2024-03-23T09:15:59;98237.56;;;4.70;100.00
24762;BME280;12865;51.934;10.330;2024-03-23T09:18:45;98236.69;;;4.81;100.00
24762;BME280;12865;51.934;10.330;2024-03-23T09:21:31;98232.06;;;4.94;100.00
24762;BME280;12865;51.934;10.330;2024-03-23T09:24:16;98233.00;;;4.93;100.00
24762;BME280;12865;51.934;10.330;2024-03-23T09:27:02;98232.06;;;4.94;100.00
24762;BME280;12865;51.934;10.330;2024-03-23T09:29:48;98220.63;;;5.14;100.00
24762;BME280;12865;51.934;10.330;2024-03-23T09:32:34;98217.00;;;5.36;100.00
24762;BME280;12865;51.934;10.330;2024-03-23T09:35:20;98216.53;;;5.51;100.00
24762;BME280;12865;51.934;10.330;2024-03-23T09:38:06;98226.31;;;5.61;100.00
24762;BME280;12865;51.934;10.330;2024-03-23T09:40:55;98224.41;;;5.82;100.00
24762;BME280;12865;51.934;10.330;2024-03-23T09:43:41;98225.44;;;5.90;100.00
24762;BME280;12865;51.934;10.330;2024-03-23T09:46:27;98219.38;;;6.09;100.00
24762;BME280;12865;51.934;10.330;2024-03-23T09:49:14;98214.50;;;6.14;100.00
24762;BME280;12865;51.934;10.330;2024-03-23T09:51:59;98209.94;;;6.74;100.00
24762;BME280;12865;51.934;10.330;2024-03-23T09:54:45;98210.91;;;6.92;100.00
24762;BME280;12865;51.934;10.330;2024-03-23T09:57:31;98211.97;;;7.09;100.00
24762;BME280;12865;51.934;10.330;2024-03-23T10:00:17;98197.41;;;7.32;100.00
24762;BME280;12865;51.934;10.330;2024-03-23T10:03:03;98203.75;;;7.59;100.00
24762;BME280;12865;51.934;10.330;2024-03-23T10:06:03;98203.16;;;7.65;100.00
24762;BME280;12865;51.934;10.330;2024-03-23T10:08:51;98183.66;;;7.83;100.00
24762;BME280;12865;51.934;10.330;2024-03-23T10:11:37;98193.06;;;7.78;100.00
24762;BME280;12865;51.934;10.330;2024-03-23T10:14:29;98188.41;;;8.07;100.00
24762;BME280;12865;51.934;10.330;2024-03-23T10:17:20;98198.25;;;7.97;100.00
24762;BME280;12865;51.934;10.330;2024-03-23T10:20:09;98188.88;;;7.75;100.00
24762;BME280;12865;51.934;10.330;2024-03-23T10:22:56;98184.56;;;7.92;100.00
24762;BME280;12865;51.934;10.330;2024-03-23T10:25:41;98189.25;;;8.08;100.00
24762;BME280;12865;51.934;10.330;2024-03-23T10:28:27;98203.50;;;7.52;100.00
24762;BME280;12865;51.934;10.330;2024-03-23T10:31:13;98212.84;;;7.00;100.00
24762;BME280;12865;51.934;10.330;2024-03-23T10:33:58;98210.94;;;6.44;100.00
24762;BME280;12865;51.934;10.330;2024-03-23T10:36:47;98198.38;;;6.27;100.00
24762;BME280;12865;51.934;10.330;2024-03-23T10:39:34;98207.28;;;6.16;100.00
24762;BME280;12865;51.934;10.330;2024-03-23T10:42:20;98194.72;;;6.18;100.00
24762;BME280;12865;51.934;10.330;2024-03-23T10:45:08;98198.66;;;6.34;100.00
24762;BME280;12865;51.934;10.330;2024-03-23T10:47:54;98190.16;;;6.20;100.00
24762;BME280;12865;51.934;10.330;2024-03-23T10:50:40;98199.22;;;6.27;100.00
24762;BME280;12865;51.934;10.330;2024-03-23T10:53:27;98196.31;;;6.30;100.00
24762;BME280;12865;51.934;10.330;2024-03-23T10:56:14;98186.81;;;6.76;100.00
24762;BME280;12865;51.934;10.330;2024-03-23T10:59:02;98192.19;;;7.13;100.00
24762;BME280;12865;51.934;10.330;2024-03-23T11:01:56;98191.19;;;7.61;100.00
24762;BME280;12865;51.934;10.330;2024-03-23T11:04:43;98207.66;;;7.92;100.00
24762;BME280;12865;51.934;10.330;2024-03-23T11:07:30;98198.91;;;7.99;100.00
24762;BME280;12865;51.934;10.330;2024-03-23T11:10:30;98235.16;;;7.63;100.00
24762;BME280;12865;51.934;10.330;2024-03-23T11:13:23;98201.03;;;6.85;100.00
24762;BME280;12865;51.934;10.330;2024-03-23T11:16:16;98179.84;;;6.75;100.00
24762;BME280;12865;51.934;10.330;2024-03-23T11:19:34;98184.44;;;6.73;100.00
24762;BME280;12865;51.934;10.330;2024-03-23T11:22:43;98193.91;;;6.47;100.00
24762;BME280;12865;51.934;10.330;2024-03-23T11:25:29;98194.03;;;6.74;100.00
24762;BME280;12865;51.934;10.330;2024-03-23T11:28:16;98190.00;;;6.89;100.00
24762;BME280;12865;51.934;10.330;2024-03-23T11:31:09;98178.97;;;7.40;100.00
24762;BME280;12865;51.934;10.330;2024-03-23T11:34:05;98177.25;;;8.04;100.00
24762;BME280;12865;51.934;10.330;2024-03-23T11:37:03;98163.59;;;8.44;100.00
24762;BME280;12865;51.934;10.330;2024-03-23T11:39:49;98159.97;;;8.88;100.00
24762;BME280;12865;51.934;10.330;2024-03-23T11:42:35;98152.94;;;9.31;100.00
24762;BME280;12865;51.934;10.330;2024-03-23T11:45:21;98153.97;;;9.38;100.00
24762;BME280;12865;51.934;10.330;2024-03-23T11:50:57;98168.59;;;8.64;100.00
24762;BME280;12865;51.934;10.330;2024-03-23T11:53:43;98210.25;;;8.46;100.00
24762;BME280;12865;51.934;10.330;2024-03-23T11:56:29;98227.34;;;7.52;100.00
24762;BME280;12865;51.934;10.330;2024-03-23T11:59:39;98247.03;;;6.64;100.00
24762;BME280;12865;51.934;10.330;2024-03-23T12:02:25;98230.78;;;6.00;100.00
24762;BME280;12865;51.934;10.330;2024-03-23T12:05:15;98211.56;;;5.98;100.00
24762;BME280;12865;51.934;10.330;2024-03-23T12:08:23;98208.97;;;6.37;100.00
24762;BME280;12865;51.934;10.330;2024-03-23T12:11:14;98215.66;;;6.41;100.00
24762;BME280;12865;51.934;10.330;2024-03-23T12:14:00;98212.31;;;6.48;100.00
24762;BME280;12865;51.934;10.330;2024-03-23T12:16:46;98209.66;;;6.67;100.00
24762;BME280;12865;51.934;10.330;2024-03-23T12:19:32;98201.25;;;7.10;100.00
24762;BME280;12865;51.934;10.330;2024-03-23T12:22:20;98190.69;;;7.38;100.00
24762;BME280;12865;51.934;10.330;2024-03-23T12:25:06;98189.50;;;7.60;100.00
24762;BME280;12865;51.934;10.330;2024-03-23T12:27:52;98177.66;;;7.81;100.00
24762;BME280;12865;51.934;10.330;2024-03-23T12:30:40;98181.19;;;8.00;100.00
24762;BME280;12865;51.934;10.330;2024-03-23T12:33:26;98169.44;;;8.02;100.00
24762;BME280;12865;51.934;10.330;2024-03-23T12:36:12;98169.50;;;8.38;100.00
24762;BME280;12865;51.934;10.330;2024-03-23T12:38:57;98164.13;;;8.47;100.00
24762;BME280;12865;51.934;10.330;2024-03-23T12:41:43;98174.44;;;8.50;100.00
24762;BME280;12865;51.934;10.330;2024-03-23T12:44:29;98172.06;;;8.12;100.00
24762;BME280;12865;51.934;10.330;2024-03-23T12:47:15;98192.53;;;7.92;100.00
24762;BME280;12865;51.934;10.330;2024-03-23T12:50:00;98203.31;;;7.91;100.00
24762;BME280;12865;51.934;10.330;2024-03-23T12:52:47;98222.75;;;7.54;100.00
24762;BME280;12865;51.934;10.330;2024-03-23T12:55:36;98224.31;;;7.47;100.00
24762;BME280;12865;51.934;10.330;2024-03-23T12:58:21;98222.06;;;6.67;100.00
24762;BME280;12865;51.934;10.330;2024-03-23T13:01:07;98223.75;;;6.68;100.00
24762;BME280;12865;51.934;10.330;2024-03-23T13:03:53;98214.56;;;6.62;100.00
24762;BME280;12865;51.934;10.330;2024-03-23T13:06:39;98197.28;;;6.58;100.00
24762;BME280;12865;51.934;10.330;2024-03-23T13:09:25;98208.66;;;6.97;100.00
24762;BME280;12865;51.934;10.330;2024-03-23T13:12:11;98216.88;;;6.94;100.00
24762;BME280;12865;51.934;10.330;2024-03-23T13:15:00;98212.84;;;6.90;100.00
24762;BME280;12865;51.934;10.330;2024-03-23T13:17:46;98196.00;;;6.82;100.00
24762;BME280;12865;51.934;10.330;2024-03-23T13:20:35;98195.84;;;6.83;100.00
24762;BME280;12865;51.934;10.330;2024-03-23T13:23:21;98212.94;;;7.18;100.00
24762;BME280;12865;51.934;10.330;2024-03-23T13:26:06;98201.44;;;7.36;100.00
24762;BME280;12865;51.934;10.330;2024-03-23T13:28:53;98223.25;;;7.67;100.00
24762;BME280;12865;51.934;10.330;2024-03-23T13:31:38;98239.25;;;7.38;100.00
24762;BME280;12865;51.934;10.330;2024-03-23T13:34:24;98242.28;;;6.49;100.00
24762;BME280;12865;51.934;10.330;2024-03-23T13:37:10;98250.00;;;5.72;100.00
24762;BME280;12865;51.934;10.330;2024-03-23T13:39:56;98251.53;;;5.44;100.00
24762;BME280;12865;51.934;10.330;2024-03-23T13:42:41;98239.22;;;5.33;100.00
24762;BME280;12865;51.934;10.330;2024-03-23T13:45:27;98229.22;;;5.58;100.00
24762;BME280;12865;51.934;10.330;2024-03-23T13:48:13;98237.44;;;5.64;100.00
24762;BME280;12865;51.934;10.330;2024-03-23T13:51:03;98230.22;;;5.66;100.00
24762;BME280;12865;51.934;10.330;2024-03-23T13:53:49;98210.16;;;5.94;100.00
24762;BME280;12865;51.934;10.330;2024-03-23T13:56:35;98221.25;;;6.38;100.00
24762;BME280;12865;51.934;10.330;2024-03-23T13:59:21;98235.72;;;6.53;100.00
24762;BME280;12865;51.934;10.330;2024-03-23T14:02:08;98223.75;;;6.49;100.00
24762;BME280;12865;51.934;10.330;2024-03-23T14:04:54;98233.09;;;6.72;100.00
24762;BME280;12865;51.934;10.330;2024-03-23T14:07:40;98230.97;;;6.66;100.00
24762;BME280;12865;51.934;10.330;2024-03-23T14:10:26;98209.66;;;6.77;100.00
24762;BME280;12865;51.934;10.330;2024-03-23T14:13:13;98212.03;;;6.70;100.00
24762;BME280;12865;51.934;10.330;2024-03-23T14:15:58;98219.56;;;6.85;100.00
24762;BME280;12865;51.934;10.330;2024-03-23T14:18:46;98225.00;;;6.83;100.00
24762;BME280;12865;51.934;10.330;2024-03-23T14:21:32;98216.91;;;6.85;100.00
24762;BME280;12865;51.934;10.330;2024-03-23T14:24:17;98204.66;;;6.93;100.00
24762;BME280;12865;51.934;10.330;2024-03-23T14:27:03;98221.38;;;6.84;100.00
24762;BME280;12865;51.934;10.330;2024-03-23T14:29:50;98229.31;;;6.75;100.00
24762;BME280;12865;51.934;10.330;2024-03-23T14:32:36;98255.53;;;6.68;100.00
24762;BME280;12865;51.934;10.330;2024-03-23T14:35:22;98281.72;;;6.61;100.00
24762;BME280;12865;51.934;10.330;2024-03-23T14:38:09;98314.19;;;6.44;100.00
24762;BME280;12865;51.934;10.330;2024-03-23T14:41:01;98324.78;;;5.53;100.00
24762;BME280;12865;51.934;10.330;2024-03-23T14:43:48;98296.84;;;4.98;100.00
24762;BME280;12865;51.934;10.330;2024-03-23T14:46:36;98282.94;;;4.75;100.00
24762;BME280;12865;51.934;10.330;2024-03-23T14:49:21;98270.63;;;4.85;100.00
24762;BME280;12865;51.934;10.330;2024-03-23T14:52:07;98261.31;;;5.23;100.00
24762;BME280;12865;51.934;10.330;2024-03-23T14:54:54;98253.72;;;5.60;100.00
24762;BME280;12865;51.934;10.330;2024-03-23T14:57:41;98250.84;;;5.72;100.00
24762;BME280;12865;51.934;10.330;2024-03-23T15:00:27;98244.53;;;5.94;100.00
24762;BME280;12865;51.934;10.330;2024-03-23T15:03:12;98235.09;;;6.01;100.00
24762;BME280;12865;51.934;10.330;2024-03-23T15:05:59;98232.41;;;5.91;100.00
24762;BME280;12865;51.934;10.330;2024-03-23T15:08:45;98220.94;;;6.21;100.00
24762;BME280;12865;51.934;10.330;2024-03-23T15:11:31;98228.63;;;6.44;100.00
24762;BME280;12865;51.934;10.330;2024-03-23T15:14:17;98228.63;;;6.44;100.00
24762;BME280;12865;51.934;10.330;2024-03-23T15:17:03;98234.50;;;6.57;100.00
24762;BME280;12865;51.934;10.330;2024-03-23T15:19:52;98224.84;;;6.75;100.00
24762;BME280;12865;51.934;10.330;2024-03-23T15:22:39;98225.16;;;6.72;100.00
24762;BME280;12865;51.934;10.330;2024-03-23T15:25:24;98230.88;;;6.58;100.00
24762;BME280;12865;51.934;10.330;2024-03-23T15:28:10;98222.66;;;6.51;100.00
24762;BME280;12865;51.934;10.330;2024-03-23T15:30:58;98235.16;;;6.59;100.00